SKG860 CYSH-CNC3
Flight info
| Callsign | SKG860 |
|---|---|
| Flight time | N/A |
| Altitude | 16000 |
| Route | DCT |
| Aircraft | PC12/L-SGCD/S |
Departure
| Time | 2026-05-05 21:54 |
|---|---|
| Airport | Smiths Falls-Montague (Russ Beach) Airport (CYSH) |
Arrival
| Time | N/A |
|---|---|
| Airport | Brampton-Caledon Airport (CNC3) |
| Time | Latitude | Longitude | Altitude | Speed | Heading |
|---|---|---|---|---|---|
| 2026-05-05 21:48 | 44.94739 | -75.94000 | 417 ft | 0 kts | 299° |
| 2026-05-05 21:51 | 44.94709 | -75.94019 | 417 ft | 13 kts | 160° |
| 2026-05-05 21:51 | 44.94668 | -75.93873 | 412 ft | 22 kts | 51° |
| 2026-05-05 21:52 | 44.94872 | -75.93551 | 412 ft | 21 kts | 47° |
| 2026-05-05 21:52 | 44.94916 | -75.93464 | 413 ft | 11 kts | 224° |
| 2026-05-05 21:52 | 44.94912 | -75.93471 | 411 ft | 5 kts | 229° |
| 2026-05-05 21:53 | 44.94797 | -75.93658 | 413 ft | 46 kts | 230° |
| 2026-05-05 21:53 | 44.94495 | -75.94149 | 421 ft | 83 kts | 229° |
| 2026-05-05 21:53 | 44.94073 | -75.94830 | 572 ft | 98 kts | 232° |
| 2026-05-05 21:53 | 44.93582 | -75.95594 | 747 ft | 115 kts | 227° |
| 2026-05-05 21:54 | 44.92990 | -75.96500 | 903 ft | 137 kts | 244° |
| 2026-05-05 21:54 | 44.92942 | -75.97916 | 1104 ft | 152 kts | 277° |
| 2026-05-05 21:54 | 44.92946 | -75.99334 | 1746 ft | 143 kts | 264° |
| 2026-05-05 21:54 | 44.92685 | -76.00692 | 2200 ft | 145 kts | 254° |
| 2026-05-05 21:55 | 44.92324 | -76.02089 | 2444 ft | 161 kts | 251° |
| 2026-05-05 21:55 | 44.91906 | -76.03615 | 2774 ft | 166 kts | 251° |
| 2026-05-05 21:55 | 44.91482 | -76.05128 | 3276 ft | 166 kts | 251° |
| 2026-05-05 21:55 | 44.91060 | -76.06635 | 3740 ft | 167 kts | 251° |
| 2026-05-05 21:56 | 44.90632 | -76.08164 | 4227 ft | 167 kts | 251° |
| 2026-05-05 21:56 | 44.90204 | -76.09691 | 4724 ft | 166 kts | 250° |
| 2026-05-05 21:56 | 44.89787 | -76.11180 | 5223 ft | 163 kts | 250° |
| 2026-05-05 21:56 | 44.89377 | -76.12639 | 5813 ft | 156 kts | 250° |
| 2026-05-05 21:57 | 44.88983 | -76.14044 | 6350 ft | 152 kts | 249° |
| 2026-05-05 21:57 | 44.88593 | -76.15435 | 6805 ft | 151 kts | 249° |
| 2026-05-05 21:57 | 44.88212 | -76.16790 | 7264 ft | 150 kts | 248° |
| 2026-05-05 21:57 | 44.87827 | -76.18161 | 7708 ft | 150 kts | 248° |
| 2026-05-05 21:58 | 44.87441 | -76.19534 | 8144 ft | 150 kts | 247° |
| 2026-05-05 21:58 | 44.87062 | -76.20879 | 8616 ft | 148 kts | 247° |
| 2026-05-05 21:58 | 44.86681 | -76.22232 | 9081 ft | 148 kts | 246° |
| 2026-05-05 21:58 | 44.86299 | -76.23587 | 9546 ft | 148 kts | 246° |
| 2026-05-05 21:59 | 44.85924 | -76.24920 | 9955 ft | 148 kts | 246° |
| 2026-05-05 21:59 | 44.85541 | -76.26275 | 10364 ft | 148 kts | 246° |
| 2026-05-05 21:59 | 44.85158 | -76.27633 | 10769 ft | 148 kts | 246° |
| 2026-05-05 21:59 | 44.84780 | -76.28972 | 11178 ft | 149 kts | 246° |
| 2026-05-05 22:00 | 44.84394 | -76.30336 | 11577 ft | 149 kts | 246° |
| 2026-05-05 22:00 | 44.84014 | -76.31684 | 11995 ft | 149 kts | 246° |
| 2026-05-05 22:00 | 44.83627 | -76.33051 | 12385 ft | 150 kts | 247° |
| 2026-05-05 22:00 | 44.83238 | -76.34423 | 12791 ft | 150 kts | 246° |
| 2026-05-05 22:01 | 44.82854 | -76.35782 | 13186 ft | 150 kts | 247° |
| 2026-05-05 22:01 | 44.82464 | -76.37155 | 13559 ft | 151 kts | 247° |
| 2026-05-05 22:01 | 44.82074 | -76.38530 | 13907 ft | 151 kts | 247° |
| 2026-05-05 22:01 | 44.81685 | -76.39899 | 14228 ft | 152 kts | 247° |
| 2026-05-05 22:02 | 44.81291 | -76.41290 | 14572 ft | 153 kts | 247° |
| 2026-05-05 22:02 | 44.80892 | -76.42695 | 14886 ft | 155 kts | 247° |
| 2026-05-05 22:02 | 44.80489 | -76.44112 | 15219 ft | 156 kts | 247° |
| 2026-05-05 22:02 | 44.80090 | -76.45517 | 15531 ft | 157 kts | 247° |
| 2026-05-05 22:03 | 44.79682 | -76.46954 | 15862 ft | 158 kts | 247° |
| 2026-05-05 22:03 | 44.79270 | -76.48402 | 16016 ft | 167 kts | 247° |
| 2026-05-05 22:03 | 44.78819 | -76.49988 | 16017 ft | 179 kts | 248° |
| 2026-05-05 22:03 | 44.78348 | -76.51643 | 16028 ft | 188 kts | 248° |
| 2026-05-05 22:04 | 44.77852 | -76.53388 | 16028 ft | 194 kts | 248° |
| 2026-05-05 22:04 | 44.77348 | -76.55155 | 16034 ft | 198 kts | 248° |
| 2026-05-05 22:04 | 44.76825 | -76.56984 | 16037 ft | 202 kts | 248° |
| 2026-05-05 22:04 | 44.76295 | -76.58837 | 16035 ft | 204 kts | 248° |
| 2026-05-05 22:05 | 44.75770 | -76.60672 | 16034 ft | 205 kts | 248° |
| 2026-05-05 22:05 | 44.75233 | -76.62549 | 16036 ft | 206 kts | 248° |
| 2026-05-05 22:05 | 44.74697 | -76.64420 | 16035 ft | 207 kts | 248° |
| 2026-05-05 22:05 | 44.74164 | -76.66280 | 16034 ft | 207 kts | 248° |
| 2026-05-05 22:06 | 44.73620 | -76.68176 | 16037 ft | 208 kts | 248° |
| 2026-05-05 22:06 | 44.73077 | -76.70067 | 16041 ft | 208 kts | 248° |
| 2026-05-05 22:06 | 44.72540 | -76.71934 | 16043 ft | 208 kts | 248° |
| 2026-05-05 22:06 | 44.71995 | -76.73830 | 16045 ft | 208 kts | 248° |
| 2026-05-05 22:07 | 44.71449 | -76.75726 | 16048 ft | 209 kts | 248° |
| 2026-05-05 22:07 | 44.70908 | -76.77606 | 16044 ft | 209 kts | 248° |
| 2026-05-05 22:07 | 44.70356 | -76.79521 | 16047 ft | 210 kts | 248° |
| 2026-05-05 22:07 | 44.69815 | -76.81398 | 16048 ft | 210 kts | 248° |
| 2026-05-05 22:08 | 44.69264 | -76.83306 | 16051 ft | 210 kts | 248° |
| 2026-05-05 22:08 | 44.68904 | -76.84551 | 16028 ft | 209 kts | 248° |
| 2026-05-05 22:08 | 44.68354 | -76.86453 | 16009 ft | 209 kts | 248° |
| 2026-05-05 22:08 | 44.67626 | -76.88967 | 16010 ft | 209 kts | 248° |
| 2026-05-05 22:09 | 44.67077 | -76.90863 | 16011 ft | 209 kts | 248° |
| 2026-05-05 22:09 | 44.66714 | -76.92118 | 16010 ft | 209 kts | 248° |
| 2026-05-05 22:09 | 44.66158 | -76.94035 | 16010 ft | 209 kts | 248° |
| 2026-05-05 22:09 | 44.65613 | -76.95911 | 16012 ft | 209 kts | 248° |
| 2026-05-05 22:10 | 44.65061 | -76.97812 | 16012 ft | 210 kts | 248° |
| 2026-05-05 22:10 | 44.64509 | -76.99712 | 16015 ft | 210 kts | 248° |
| 2026-05-05 22:10 | 44.63962 | -77.01591 | 16016 ft | 210 kts | 248° |
| 2026-05-05 22:10 | 44.63407 | -77.03501 | 16014 ft | 210 kts | 248° |
| 2026-05-05 22:11 | 44.62854 | -77.05400 | 16015 ft | 210 kts | 248° |
| 2026-05-05 22:11 | 44.62302 | -77.07292 | 16016 ft | 211 kts | 248° |
| 2026-05-05 22:11 | 44.61744 | -77.09205 | 16016 ft | 211 kts | 248° |
| 2026-05-05 22:11 | 44.61187 | -77.11113 | 16017 ft | 211 kts | 248° |
| 2026-05-05 22:12 | 44.60635 | -77.13003 | 16022 ft | 211 kts | 248° |
| 2026-05-05 22:12 | 44.60077 | -77.14911 | 16023 ft | 211 kts | 248° |
| 2026-05-05 22:12 | 44.59518 | -77.16823 | 16021 ft | 211 kts | 248° |
| 2026-05-05 22:12 | 44.58958 | -77.18734 | 16024 ft | 211 kts | 248° |
| 2026-05-05 22:13 | 44.58406 | -77.20618 | 16024 ft | 211 kts | 248° |
| 2026-05-05 22:13 | 44.57845 | -77.22530 | 16029 ft | 211 kts | 248° |
| 2026-05-05 22:13 | 44.57283 | -77.24447 | 16025 ft | 212 kts | 248° |
| 2026-05-05 22:13 | 44.56719 | -77.26366 | 15985 ft | 213 kts | 248° |
| 2026-05-05 22:14 | 44.56149 | -77.28307 | 15712 ft | 222 kts | 248° |
| 2026-05-05 22:14 | 44.55553 | -77.30337 | 15439 ft | 227 kts | 248° |
| 2026-05-05 22:14 | 44.54942 | -77.32412 | 15167 ft | 231 kts | 248° |
| 2026-05-05 22:14 | 44.54325 | -77.34509 | 14899 ft | 233 kts | 248° |
| 2026-05-05 22:15 | 44.53704 | -77.36615 | 14637 ft | 234 kts | 247° |
| 2026-05-05 22:15 | 44.53086 | -77.38710 | 14370 ft | 235 kts | 247° |
| 2026-05-05 22:15 | 44.52457 | -77.40838 | 14108 ft | 236 kts | 247° |
| 2026-05-05 22:15 | 44.51828 | -77.42965 | 13849 ft | 235 kts | 247° |
| 2026-05-05 22:16 | 44.51212 | -77.45047 | 13589 ft | 233 kts | 247° |
| 2026-05-05 22:16 | 44.50589 | -77.47151 | 13294 ft | 233 kts | 247° |
| 2026-05-05 22:16 | 44.49967 | -77.49247 | 13003 ft | 232 kts | 247° |
| 2026-05-05 22:16 | 44.49353 | -77.51318 | 12719 ft | 232 kts | 247° |
| 2026-05-05 22:17 | 44.48733 | -77.53405 | 12430 ft | 232 kts | 247° |
| 2026-05-05 22:17 | 44.48118 | -77.55476 | 12146 ft | 232 kts | 247° |
| 2026-05-05 22:17 | 44.47501 | -77.57552 | 12009 ft | 227 kts | 247° |
| 2026-05-05 22:17 | 44.46901 | -77.59568 | 12007 ft | 220 kts | 247° |
| 2026-05-05 22:18 | 44.46321 | -77.61512 | 12009 ft | 215 kts | 247° |
| 2026-05-05 22:18 | 44.45747 | -77.63435 | 12008 ft | 212 kts | 247° |
| 2026-05-05 22:18 | 44.45181 | -77.65334 | 12009 ft | 210 kts | 246° |
| 2026-05-05 22:18 | 44.44615 | -77.67227 | 12010 ft | 211 kts | 246° |
| 2026-05-05 22:19 | 44.44051 | -77.69115 | 12009 ft | 212 kts | 246° |
| 2026-05-05 22:19 | 44.43477 | -77.71035 | 12010 ft | 213 kts | 247° |
| 2026-05-05 22:19 | 44.42902 | -77.72957 | 12012 ft | 214 kts | 246° |
| 2026-05-05 22:19 | 44.42331 | -77.74864 | 12014 ft | 214 kts | 246° |
| 2026-05-05 22:20 | 44.41754 | -77.76792 | 12013 ft | 214 kts | 246° |
| 2026-05-05 22:20 | 44.41182 | -77.78697 | 12013 ft | 215 kts | 246° |
| 2026-05-05 22:20 | 44.40599 | -77.80641 | 12016 ft | 215 kts | 246° |
| 2026-05-05 22:20 | 44.40020 | -77.82569 | 12017 ft | 215 kts | 246° |
| 2026-05-05 22:21 | 44.39447 | -77.84475 | 12017 ft | 215 kts | 246° |
| 2026-05-05 22:21 | 44.38866 | -77.86408 | 12020 ft | 215 kts | 246° |
| 2026-05-05 22:21 | 44.38288 | -77.88330 | 12017 ft | 212 kts | 246° |
| 2026-05-05 22:21 | 44.37721 | -77.90210 | 12021 ft | 210 kts | 246° |
| 2026-05-05 22:22 | 44.37156 | -77.92087 | 12019 ft | 209 kts | 246° |
| 2026-05-05 22:22 | 44.36589 | -77.93965 | 12022 ft | 208 kts | 246° |
| 2026-05-05 22:22 | 44.36030 | -77.95814 | 12023 ft | 208 kts | 246° |
| 2026-05-05 22:22 | 44.35467 | -77.97680 | 12022 ft | 207 kts | 246° |
| 2026-05-05 22:23 | 44.34910 | -77.99523 | 12025 ft | 207 kts | 246° |
| 2026-05-05 22:23 | 44.34346 | -78.01387 | 12024 ft | 207 kts | 246° |
| 2026-05-05 22:23 | 44.33781 | -78.03251 | 12026 ft | 207 kts | 246° |
| 2026-05-05 22:23 | 44.33227 | -78.05080 | 12027 ft | 207 kts | 246° |
| 2026-05-05 22:24 | 44.32661 | -78.06948 | 12028 ft | 207 kts | 246° |
| 2026-05-05 22:24 | 44.32104 | -78.08782 | 12023 ft | 207 kts | 246° |
| 2026-05-05 22:24 | 44.31539 | -78.10642 | 12026 ft | 207 kts | 247° |
| 2026-05-05 22:24 | 44.30978 | -78.12491 | 12026 ft | 208 kts | 246° |
| 2026-05-05 22:25 | 44.30408 | -78.14365 | 12024 ft | 208 kts | 246° |
| 2026-05-05 22:25 | 44.29847 | -78.16208 | 12026 ft | 208 kts | 246° |
| 2026-05-05 22:25 | 44.29279 | -78.18073 | 12026 ft | 208 kts | 246° |
| 2026-05-05 22:25 | 44.28709 | -78.19942 | 12027 ft | 208 kts | 246° |
| 2026-05-05 22:26 | 44.28149 | -78.21780 | 12025 ft | 208 kts | 246° |
| 2026-05-05 22:26 | 44.27578 | -78.23651 | 12024 ft | 209 kts | 246° |
| 2026-05-05 22:26 | 44.27007 | -78.25521 | 12024 ft | 209 kts | 246° |
| 2026-05-05 22:26 | 44.26434 | -78.27394 | 12025 ft | 209 kts | 246° |
| 2026-05-05 22:27 | 44.25869 | -78.29243 | 12023 ft | 209 kts | 246° |
| 2026-05-05 22:27 | 44.25300 | -78.31101 | 12022 ft | 209 kts | 246° |
| 2026-05-05 22:27 | 44.24728 | -78.32968 | 12021 ft | 209 kts | 246° |
| 2026-05-05 22:27 | 44.24155 | -78.34838 | 12022 ft | 209 kts | 246° |
| 2026-05-05 22:28 | 44.23580 | -78.36714 | 12022 ft | 209 kts | 246° |
| 2026-05-05 22:28 | 44.23013 | -78.38560 | 12020 ft | 209 kts | 246° |
| 2026-05-05 22:28 | 44.22437 | -78.40434 | 12020 ft | 210 kts | 246° |
| 2026-05-05 22:28 | 44.21862 | -78.42309 | 12020 ft | 210 kts | 246° |
| 2026-05-05 22:29 | 44.21333 | -78.44028 | 12020 ft | 210 kts | 246° |